Time;durP1;ratioP1;P1;durP2;ratioP2;P2;SDS_P1;SDS_P2;PMS_P1;PMS_P2;Temp;Humidity;BMP_temperature;BMP_pressure;BME280_temperature;BME280_humidity;BME280_pressure;Samples;Min_cycle;Max_cycle;Signal;HPM_P1;HPM_P2
2022/07/01 00:01:27;;;;;;;2.63;0.70;;;15.50;99.90;;;;;;5112752;27;20092;-48
2022/07/01 00:03:53;;;;;;;1.60;0.52;;;15.50;99.90;;;;;;5112311;28;20174;-48
2022/07/01 00:06:20;;;;;;;1.88;0.70;;;15.40;99.90;;;;;;5112540;28;20100;-48
2022/07/01 00:08:47;;;;;;;1.90;0.70;;;15.50;99.90;;;;;;5112441;28;20043;-49
2022/07/01 00:11:14;;;;;;;1.50;0.60;;;15.50;99.90;;;;;;5111562;28;20476;-49
2022/07/01 00:13:39;;;;;;;1.30;0.80;;;15.60;99.90;;;;;;5111753;28;20432;-46
2022/07/01 00:16:05;;;;;;;1.35;0.70;;;15.50;99.90;;;;;;5112389;27;20039;-45
2022/07/01 00:18:31;;;;;;;5.53;0.82;;;15.40;99.90;;;;;;5112458;28;20044;-47
2022/07/01 00:20:56;;;;;;;2.30;0.80;;;15.50;99.90;;;;;;5112135;28;20035;-46
2022/07/01 00:23:22;;;;;;;2.28;1.00;;;15.60;99.90;;;;;;5112058;28;20070;-46
2022/07/01 00:25:48;;;;;;;9.48;1.10;;;15.60;99.90;;;;;;5112093;28;20066;-48
2022/07/01 00:28:14;;;;;;;3.08;1.17;;;15.60;99.90;;;;;;5093833;28;20031;-48
2022/07/01 00:30:40;;;;;;;5.90;1.52;;;15.50;99.90;;;;;;5111065;28;20042;-44
2022/07/01 00:33:06;;;;;;;2.78;1.30;;;15.40;99.90;;;;;;5111349;28;20039;-47
2022/07/01 00:35:32;;;;;;;3.58;1.35;;;15.60;99.90;;;;;;5110500;28;20043;-45
2022/07/01 00:37:58;;;;;;;4.55;1.90;;;15.70;99.90;;;;;;5111527;28;20470;-49
2022/07/01 00:40:24;;;;;;;10.65;7.60;;;15.60;99.90;;;;;;5111449;28;20036;-45
2022/07/01 00:42:50;;;;;;;18.77;14.25;;;15.50;99.90;;;;;;5111146;28;20114;-48
2022/07/01 00:45:16;;;;;;;24.13;18.02;;;15.50;99.90;;;;;;5111663;28;20115;-44
2022/07/01 00:47:42;;;;;;;21.77;18.17;;;15.50;99.90;;;;;;5111732;28;20035;-45
2022/07/01 00:50:14;;;;;;;26.63;20.05;;;15.60;99.90;;;;;;5111916;28;20047;-44
2022/07/01 00:52:40;;;;;;;25.30;18.83;;;15.40;99.90;;;;;;5111557;28;20073;-46
2022/07/01 00:55:09;;;;;;;25.73;19.63;;;15.40;99.90;;;;;;5111474;28;20580;-47
2022/07/01 00:57:37;;;;;;;21.85;18.90;;;15.40;99.90;;;;;;5111672;28;20539;-46
2022/07/01 01:00:11;;;;;;;24.63;18.17;;;15.40;99.90;;;;;;5111794;28;20047;-48
2022/07/01 01:02:37;;;;;;;25.95;16.77;;;15.40;99.90;;;;;;5111117;28;20058;-46
2022/07/01 01:05:04;;;;;;;19.60;15.30;;;15.30;99.90;;;;;;5111380;28;20393;-49
2022/07/01 01:07:31;;;;;;;20.52;15.35;;;15.20;99.90;;;;;;5092985;28;20039;-46
2022/07/01 01:09:58;;;;;;;24.08;15.80;;;15.30;99.90;;;;;;5111005;28;20064;-48
2022/07/01 01:12:25;;;;;;;22.23;16.08;;;15.30;99.90;;;;;;5110758;28;20040;-49
2022/07/01 01:14:51;;;;;;;20.52;13.60;;;15.30;99.90;;;;;;5110932;28;20027;-47
2022/07/01 01:17:18;;;;;;;19.02;13.13;;;15.20;99.90;;;;;;5111320;28;20028;-45
2022/07/01 01:19:45;;;;;;;20.08;14.73;;;15.20;99.90;;;;;;5109348;28;20039;-50
2022/07/01 01:22:15;;;;;;;21.10;13.15;;;15.50;99.90;;;;;;5111066;28;20032;-46
2022/07/01 01:24:41;;;;;;;20.92;13.05;;;15.40;99.90;;;;;;5110727;28;20032;-45
2022/07/01 01:27:07;;;;;;;20.67;13.40;;;15.50;99.90;;;;;;5111103;28;20066;-46
2022/07/01 01:29:35;;;;;;;20.45;12.88;;;15.50;99.90;;;;;;5110629;28;20042;-46
2022/07/01 01:32:02;;;;;;;21.20;11.90;;;15.40;99.90;;;;;;5111292;28;20023;-48
2022/07/01 01:34:27;;;;;;;19.23;12.55;;;15.30;99.90;;;;;;5110909;28;20390;-47
2022/07/01 01:36:53;;;;;;;19.42;13.10;;;15.20;99.90;;;;;;5111032;28;20040;-45
2022/07/01 01:39:19;;;;;;;17.40;11.32;;;15.20;99.90;;;;;;5092345;28;20089;-49
2022/07/01 01:41:46;;;;;;;16.27;12.18;;;15.20;99.90;;;;;;5110443;28;20043;-45
2022/07/01 01:44:12;;;;;;;22.55;13.38;;;15.30;99.90;;;;;;5110641;28;20032;-44
2022/07/01 01:46:38;;;;;;;20.10;12.77;;;15.40;99.90;;;;;;5110809;28;20053;-45
2022/07/01 01:49:05;;;;;;;18.80;12.55;;;15.30;99.90;;;;;;5110621;28;20035;-46
2022/07/01 01:51:31;;;;;;;18.52;11.38;;;15.20;99.90;;;;;;5110525;28;20124;-45
2022/07/01 01:53:57;;;;;;;16.23;10.23;;;15.30;99.90;;;;;;5110458;28;20054;-45
2022/07/01 01:56:23;;;;;;;13.63;9.70;;;15.20;99.90;;;;;;5109192;28;20058;-46
2022/07/01 01:58:49;;;;;;;15.75;10.00;;;15.00;99.90;;;;;;5091888;28;20058;-44
2022/07/01 02:01:16;;;;;;;15.52;10.25;;;15.10;99.90;;;;;;5110458;28;20118;-43
2022/07/01 02:03:43;;;;;;;14.65;9.68;;;15.00;99.90;;;;;;5108429;28;20043;-46
2022/07/01 02:06:10;;;;;;;15.50;9.55;;;15.00;99.90;;;;;;5091799;28;20126;-44
2022/07/01 02:08:37;;;;;;;12.30;8.90;;;15.10;99.90;;;;;;5110374;28;20360;-44
2022/07/01 02:11:03;;;;;;;14.05;10.07;;;15.00;99.90;;;;;;5110256;28;20497;-46
2022/07/01 02:13:29;;;;;;;13.82;9.80;;;15.10;99.90;;;;;;5109964;28;20134;-47
2022/07/01 02:15:56;;;;;;;13.93;10.38;;;15.00;99.90;;;;;;5110596;28;20130;-45
2022/07/01 02:18:22;;;;;;;15.65;10.63;;;15.00;99.90;;;;;;5109206;28;20038;-48
2022/07/01 02:20:48;;;;;;;17.10;10.75;;;14.90;99.90;;;;;;5110442;28;20031;-47
2022/07/01 02:23:14;;;;;;;16.42;10.10;;;15.00;99.90;;;;;;5110556;28;20089;-47
2022/07/01 02:25:40;;;;;;;14.55;10.88;;;15.00;99.90;;;;;;5130808;28;20031;-46
2022/07/01 02:28:07;;;;;;;15.73;10.32;;;14.80;99.90;;;;;;5130758;28;20543;-47
2022/07/01 02:30:37;;;;;;;15.38;11.38;;;14.80;99.90;;;;;;5131028;28;20497;-47
2022/07/01 02:33:05;;;;;;;16.85;11.18;;;14.90;99.90;;;;;;5112076;28;20314;-47
2022/07/01 02:35:35;;;;;;;16.23;10.80;;;14.90;99.90;;;;;;5130952;28;20401;-44
2022/07/01 02:38:01;;;;;;;17.95;12.07;;;14.80;99.90;;;;;;5130542;28;20039;-46
2022/07/01 02:40:27;;;;;;;16.63;12.45;;;14.80;99.90;;;;;;5130379;28;20554;-46
2022/07/01 02:42:53;;;;;;;22.85;13.45;;;14.70;99.90;;;;;;5132389;27;20031;-46
2022/07/01 02:45:18;;;;;;;23.52;15.85;;;14.70;99.90;;;;;;5134618;27;20039;-46
2022/07/01 02:47:44;;;;;;;23.80;16.90;;;14.90;99.90;;;;;;5121121;27;20529;-46
2022/07/01 02:50:11;;;;;;;24.15;17.88;;;14.70;99.90;;;;;;5111448;28;20047;-46
2022/07/01 02:52:39;;;;;;;25.30;18.70;;;14.80;99.90;;;;;;5113753;28;20035;-43
2022/07/01 02:55:07;;;;;;;28.25;19.83;;;14.80;99.90;;;;;;5113761;28;20620;-44
2022/07/01 02:57:33;;;;;;;32.10;21.45;;;14.70;99.90;;;;;;5112466;28;20040;-47
2022/07/01 02:59:59;;;;;;;30.35;20.65;;;14.60;99.90;;;;;;5112953;28;20114;-45
2022/07/01 03:02:25;;;;;;;31.30;21.90;;;14.50;99.90;;;;;;5095470;28;20039;-46
2022/07/01 03:04:52;;;;;;;35.00;23.98;;;14.60;99.90;;;;;;5113194;27;20044;-45
2022/07/01 03:07:19;;;;;;;38.80;25.35;;;14.50;99.90;;;;;;5095570;28;20056;-47
2022/07/01 03:09:45;;;;;;;36.78;24.02;;;14.50;99.90;;;;;;5113660;28;20468;-47
2022/07/01 03:12:24;;;;;;;40.35;25.80;;;14.60;99.90;;;;;;5113028;28;20145;-45
2022/07/01 03:15:12;;;;;;;36.78;26.05;;;14.70;99.90;;;;;;5113589;28;20058;-50
2022/07/01 03:17:41;;;;;;;38.47;26.25;;;14.40;99.90;;;;;;5113815;28;20089;-46
2022/07/01 03:20:09;;;;;;;40.90;28.33;;;14.40;99.90;;;;;;5112952;28;20036;-44
2022/07/01 03:22:36;;;;;;;42.50;28.02;;;14.50;99.90;;;;;;5113637;28;20066;-45
2022/07/01 03:25:04;;;;;;;45.25;29.33;;;14.50;99.90;;;;;;5113434;28;20035;-50
2022/07/01 03:27:30;;;;;;;42.90;28.40;;;14.30;99.90;;;;;;5113522;28;20432;-44
2022/07/01 03:29:56;;;;;;;41.20;28.40;;;14.40;99.90;;;;;;5094761;28;20043;-46
2022/07/01 03:32:22;;;;;;;44.85;29.90;;;14.30;99.90;;;;;;5094911;28;20130;-43
2022/07/01 03:34:50;;;;;;;45.35;29.83;;;14.30;99.90;;;;;;5111536;28;20028;-47
2022/07/01 03:37:17;;;;;;;44.72;30.05;;;14.20;99.90;;;;;;5113095;28;20071;-45
2022/07/01 03:39:44;;;;;;;45.47;28.90;;;14.40;99.90;;;;;;5095790;28;20110;-47
2022/07/01 03:42:09;;;;;;;42.10;28.75;;;14.40;99.90;;;;;;5112678;28;20176;-45
2022/07/01 03:44:36;;;;;;;45.78;29.83;;;14.30;99.90;;;;;;5112757;28;20492;-48
2022/07/01 03:47:03;;;;;;;44.58;29.50;;;14.30;99.90;;;;;;5112691;28;20144;-45
2022/07/01 03:49:29;;;;;;;41.55;28.80;;;14.40;99.90;;;;;;5112760;27;20035;-45
2022/07/01 03:51:55;;;;;;;45.35;29.35;;;14.30;99.90;;;;;;5113051;27;20041;-48
2022/07/01 03:54:30;;;;;;;43.50;27.88;;;14.40;99.90;;;;;;5093663;28;20047;-48
2022/07/01 03:56:58;;;;;;;44.72;28.70;;;14.30;99.90;;;;;;5112950;28;20085;-45
2022/07/01 03:59:25;;;;;;;46.60;29.83;;;14.50;99.90;;;;;;5112557;28;20050;-45
2022/07/01 04:01:54;;;;;;;45.00;28.27;;;14.30;99.90;;;;;;5112593;28;20111;-46
2022/07/01 04:04:21;;;;;;;44.58;29.02;;;14.50;99.90;;;;;;5112528;28;20066;-46
2022/07/01 04:06:47;;;;;;;47.67;30.35;;;14.40;99.90;;;;;;5112770;28;20097;-46
2022/07/01 04:09:15;;;;;;;48.78;31.27;;;14.40;99.90;;;;;;5112586;28;20031;-49
2022/07/01 04:11:45;;;;;;;51.65;31.20;;;14.50;99.90;;;;;;5111276;28;20565;-46
2022/07/01 04:14:11;;;;;;;49.70;32.03;;;14.50;99.90;;;;;;5111817;27;20040;-48
2022/07/01 04:16:37;;;;;;;51.83;32.55;;;14.30;99.90;;;;;;5112206;28;20042;-47
2022/07/01 04:19:03;;;;;;;49.42;33.38;;;14.30;99.90;;;;;;5110128;28;20381;-48
2022/07/01 04:24:14;;;;;;;53.67;35.58;;;14.40;99.90;;;;;;5112231;27;20401;-45
2022/07/01 04:26:41;;;;;;;53.22;35.95;;;14.20;99.90;;;;;;5111906;28;20028;-47
2022/07/01 04:29:07;;;;;;;56.88;35.70;;;14.10;99.90;;;;;;5112166;28;20043;-48
2022/07/01 04:31:33;;;;;;;51.42;33.85;;;14.10;99.90;;;;;;5112220;28;20084;-49
2022/07/01 04:33:59;;;;;;;53.55;35.22;;;14.30;99.90;;;;;;5111891;28;20047;-47
2022/07/01 04:36:25;;;;;;;57.08;34.47;;;14.30;99.90;;;;;;5111959;27;20491;-50
2022/07/01 04:38:50;;;;;;;48.63;33.42;;;14.20;99.90;;;;;;5111891;27;20036;-44
2022/07/01 04:44:01;;;;;;;;;;;14.20;99.90;;;;;;5111780;28;20089;-48
2022/07/01 04:46:27;;;;;;;45.53;32.05;;;14.30;99.90;;;;;;5111808;28;19919;-44
2022/07/01 04:48:53;;;;;;;51.35;34.15;;;14.20;99.90;;;;;;5111551;28;20035;-43
2022/07/01 04:51:18;;;;;;;46.92;32.45;;;14.30;99.90;;;;;;5111710;27;20046;-48
2022/07/01 04:53:44;;;;;;;45.90;31.52;;;14.30;99.90;;;;;;5093215;28;20081;-49
2022/07/01 04:56:10;;;;;;;49.58;33.28;;;14.20;99.90;;;;;;5111695;28;20039;-45
2022/07/01 04:58:35;;;;;;;51.35;33.85;;;14.10;99.90;;;;;;5111536;28;20039;-47
2022/07/01 05:01:01;;;;;;;51.40;33.72;;;14.40;99.90;;;;;;5111485;28;20023;-50
2022/07/01 05:03:27;;;;;;;52.00;33.78;;;14.10;99.90;;;;;;5109734;28;20487;-46
2022/07/01 05:05:52;;;;;;;48.28;31.95;;;14.30;99.90;;;;;;5108285;28;20118;-45
2022/07/01 05:08:18;;;;;;;47.55;32.00;;;14.30;99.90;;;;;;5111077;27;20043;-48
2022/07/01 05:10:43;;;;;;;47.45;31.98;;;14.20;99.90;;;;;;5075865;28;20127;-47
2022/07/01 05:13:09;;;;;;;48.72;33.10;;;14.30;99.90;;;;;;5110895;28;20478;-45
2022/07/01 05:15:35;;;;;;;46.83;31.70;;;14.40;99.90;;;;;;5111055;28;20509;-48
2022/07/01 05:23:29;;;;;;;54.17;34.92;;;14.30;99.90;;;;;;5111493;28;20143;-43
2022/07/01 05:25:54;;;;;;;44.17;31.30;;;14.20;99.90;;;;;;5111015;28;20122;-46
2022/07/01 05:28:20;;;;;;;43.90;32.28;;;14.20;99.90;;;;;;5111252;28;20043;-45
2022/07/01 05:30:46;;;;;;;43.42;30.92;;;14.20;99.90;;;;;;5110783;28;20039;-43
2022/07/01 05:33:11;;;;;;;41.63;28.95;;;14.50;99.90;;;;;;5111010;28;20031;-46
2022/07/01 05:35:37;;;;;;;43.63;31.33;;;14.40;99.90;;;;;;5110923;28;20412;-47
2022/07/01 05:38:03;;;;;;;42.20;31.50;;;14.30;99.90;;;;;;5110850;28;20048;-44
2022/07/01 05:40:28;;;;;;;44.53;30.08;;;14.20;99.90;;;;;;5109364;28;20039;-48
2022/07/01 05:42:54;;;;;;;43.60;30.48;;;14.30;99.90;;;;;;5110456;28;20043;-47
2022/07/01 05:45:20;;;;;;;42.58;31.23;;;14.40;99.90;;;;;;5110639;28;20071;-43
2022/07/01 05:47:46;;;;;;;43.92;29.02;;;14.40;99.90;;;;;;5108032;28;20394;-45
2022/07/01 05:50:12;;;;;;;41.95;27.88;;;14.30;99.90;;;;;;5108372;28;20031;-44
2022/07/01 05:52:37;;;;;;;40.88;27.77;;;14.30;99.90;;;;;;5110880;28;20470;-43
2022/07/01 05:55:03;;;;;;;45.65;30.40;;;14.30;99.90;;;;;;5110650;28;20485;-43
2022/07/01 05:57:29;;;;;;;40.22;28.83;;;14.40;99.90;;;;;;5092259;28;20035;-45
2022/07/01 05:59:55;;;;;;;48.38;31.63;;;14.30;99.90;;;;;;5110658;28;20039;-46
2022/07/01 06:02:21;;;;;;;45.00;30.65;;;14.40;99.90;;;;;;5108019;28;20789;-43
2022/07/01 06:04:46;;;;;;;42.00;28.63;;;14.40;99.90;;;;;;5091944;28;20083;-46
2022/07/01 06:07:12;;;;;;;42.90;29.70;;;14.30;99.90;;;;;;5110276;28;20050;-46
2022/07/01 06:09:38;;;;;;;42.92;30.25;;;14.20;99.90;;;;;;5109748;28;20523;-43
2022/07/01 06:12:05;;;;;;;45.58;30.58;;;14.50;99.90;;;;;;5088515;28;20083;-45
2022/07/01 06:14:31;;;;;;;44.65;31.20;;;14.30;99.90;;;;;;5110045;28;20421;-45
2022/07/01 06:16:57;;;;;;;43.30;31.52;;;14.50;99.90;;;;;;5111676;28;20091;-47
2022/07/01 06:19:22;;;;;;;51.15;32.38;;;14.30;99.90;;;;;;5113492;28;20067;-46
2022/07/01 06:21:48;;;;;;;42.55;30.30;;;14.40;99.90;;;;;;5113189;28;20048;-44
2022/07/01 06:24:14;;;;;;;43.30;31.90;;;14.50;99.90;;;;;;5110243;28;20043;-44
2022/07/01 06:26:39;;;;;;;44.05;30.30;;;14.40;99.90;;;;;;5112298;28;20419;-48
2022/07/01 06:29:05;;;;;;;45.85;31.90;;;14.50;99.90;;;;;;5113060;27;20167;-46
2022/07/01 06:31:33;;;;;;;52.90;33.28;;;14.50;99.90;;;;;;5112206;28;20031;-45
2022/07/01 06:33:59;;;;;;;41.08;30.48;;;14.60;99.90;;;;;;5112909;28;20047;-45
2022/07/01 06:36:25;;;;;;;43.05;30.33;;;14.50;99.90;;;;;;5094509;28;20444;-44
2022/07/01 06:38:51;;;;;;;43.13;29.45;;;14.60;99.90;;;;;;5093904;28;20510;-44
2022/07/01 06:41:29;;;;;;;43.70;30.60;;;14.60;99.90;;;;;;5111848;27;20044;-43
2022/07/01 06:44:02;;;;;;;44.05;31.38;;;14.70;99.90;;;;;;5110781;27;20541;-44
2022/07/01 06:46:29;;;;;;;40.65;31.05;;;14.70;99.90;;;;;;5103885;27;20035;-44
2022/07/01 06:48:55;;;;;;;46.90;30.42;;;14.70;99.90;;;;;;5109831;28;21074;-47
2022/07/01 06:51:21;;;;;;;38.80;27.65;;;15.00;99.90;;;;;;5111855;28;20046;-46
2022/07/01 06:53:49;;;;;;;44.83;30.92;;;14.80;99.90;;;;;;5111238;28;20039;-46
2022/07/01 06:56:16;;;;;;;41.97;30.25;;;15.00;99.90;;;;;;5112095;28;20040;-46
2022/07/01 06:58:42;;;;;;;42.33;28.50;;;14.90;99.90;;;;;;5112157;28;20032;-44
2022/07/01 07:01:07;;;;;;;40.63;28.23;;;15.00;99.90;;;;;;5112262;28;20230;-46
2022/07/01 07:03:33;;;;;;;36.22;28.45;;;14.90;99.90;;;;;;5117246;27;20502;-44
2022/07/01 07:06:02;;;;;;;40.92;29.40;;;15.10;99.90;;;;;;5108374;28;20032;-44
2022/07/01 07:08:29;;;;;;;42.45;29.00;;;15.10;99.90;;;;;;5109777;28;20049;-46
2022/07/01 07:10:55;;;;;;;38.03;28.10;;;15.20;99.90;;;;;;5106185;28;20036;-45
2022/07/01 07:13:20;;;;;;;38.55;27.77;;;15.30;99.90;;;;;;5109004;28;20441;-49
2022/07/01 07:15:46;;;;;;;38.20;27.95;;;15.30;99.90;;;;;;5110733;28;20049;-47
2022/07/01 07:18:12;;;;;;;43.42;29.13;;;15.20;99.90;;;;;;5109424;28;20031;-45
2022/07/01 07:20:38;;;;;;;36.75;27.70;;;15.10;99.90;;;;;;5111192;27;20082;-48
2022/07/01 07:23:04;;;;;;;35.75;27.08;;;15.20;99.90;;;;;;5091603;28;20043;-47
2022/07/01 07:25:30;;;;;;;39.35;27.67;;;15.20;99.90;;;;;;5111791;28;20090;-45
2022/07/01 07:27:56;;;;;;;34.20;27.77;;;15.50;99.90;;;;;;5110849;28;20062;-45
2022/07/01 07:30:22;;;;;;;41.42;29.48;;;15.50;99.90;;;;;;5111841;28;20111;-44
2022/07/01 07:32:48;;;;;;;37.65;27.67;;;15.60;99.90;;;;;;5091849;28;20092;-48
2022/07/01 07:35:13;;;;;;;35.05;26.45;;;15.70;99.90;;;;;;5110541;27;20211;-44
2022/07/01 07:37:39;;;;;;;37.17;27.35;;;15.90;99.90;;;;;;5109479;28;20556;-44
2022/07/01 07:40:07;;;;;;;38.35;26.75;;;16.10;99.90;;;;;;5110663;28;20415;-44
2022/07/01 07:42:33;;;;;;;32.72;25.35;;;16.30;99.90;;;;;;5110360;28;20036;-46
2022/07/01 07:44:59;;;;;;;35.00;25.15;;;16.10;99.90;;;;;;5111320;28;20035;-49
2022/07/01 07:47:25;;;;;;;35.15;26.17;;;16.20;99.90;;;;;;5112616;28;20122;-44
2022/07/01 07:49:51;;;;;;;34.05;26.05;;;16.20;99.90;;;;;;5094666;28;20047;-48
2022/07/01 07:52:16;;;;;;;35.40;26.95;;;16.10;99.90;;;;;;5112883;28;20039;-46
2022/07/01 07:54:42;;;;;;;40.80;26.60;;;16.30;99.90;;;;;;5112720;28;20073;-48
2022/07/01 07:57:08;;;;;;;32.78;25.77;;;16.40;99.90;;;;;;5112740;28;20446;-49
2022/07/01 07:59:34;;;;;;;33.70;25.85;;;16.40;99.90;;;;;;5112478;28;20035;-47
2022/07/01 08:02:00;;;;;;;34.58;25.90;;;16.40;99.90;;;;;;5094429;28;20051;-47
2022/07/01 08:04:26;;;;;;;35.28;26.00;;;16.40;99.90;;;;;;5112325;28;20402;-47
2022/07/01 08:06:52;;;;;;;34.22;24.63;;;16.40;99.90;;;;;;5112324;28;20036;-46
2022/07/01 08:09:18;;;;;;;36.63;24.20;;;16.50;99.90;;;;;;5112195;28;20040;-48
2022/07/01 08:11:44;;;;;;;32.28;24.45;;;16.50;99.90;;;;;;5112650;28;20536;-49
2022/07/01 08:14:10;;;;;;;34.53;23.90;;;16.50;99.90;;;;;;5111985;28;20382;-47
2022/07/01 08:16:36;;;;;;;30.77;22.38;;;16.60;99.90;;;;;;5112212;28;20044;-47
2022/07/01 08:19:02;;;;;;;30.60;23.80;;;16.60;99.90;;;;;;5112123;28;20071;-47
2022/07/01 08:21:28;;;;;;;31.25;21.88;;;16.80;99.90;;;;;;5112236;27;20101;-48
2022/07/01 08:23:54;;;;;;;28.80;21.55;;;16.80;99.90;;;;;;5112294;28;20482;-50
2022/07/01 08:26:20;;;;;;;30.10;22.25;;;17.00;99.90;;;;;;5112289;28;20070;-46
2022/07/01 08:28:46;;;;;;;29.15;21.48;;;17.00;99.90;;;;;;5112391;28;20039;-50
2022/07/01 08:31:12;;;;;;;23.15;19.15;;;17.10;99.90;;;;;;5110659;28;20035;-48
2022/07/01 08:33:38;;;;;;;25.83;17.65;;;17.40;99.90;;;;;;5112138;28;20032;-46
2022/07/01 08:36:08;;;;;;;27.17;17.45;;;17.20;99.90;;;;;;5112180;28;20039;-48
2022/07/01 08:38:34;;;;;;;22.20;16.23;;;17.40;99.90;;;;;;5111775;28;20043;-49
2022/07/01 08:41:01;;;;;;;21.08;13.60;;;17.20;99.90;;;;;;5110838;28;20080;-49
2022/07/01 08:43:27;;;;;;;19.98;14.40;;;17.00;99.90;;;;;;5111208;28;20035;-47
2022/07/01 08:45:54;;;;;;;22.38;15.13;;;17.20;99.90;;;;;;5093225;28;20387;-50
2022/07/01 08:48:20;;;;;;;20.08;14.05;;;17.40;99.90;;;;;;5111934;28;20039;-47
2022/07/01 08:50:46;;;;;;;19.92;13.40;;;17.60;99.90;;;;;;5111908;28;20044;-48
2022/07/01 08:53:12;;;;;;;19.67;12.73;;;17.70;99.90;;;;;;5111290;28;20517;-43
2022/07/01 08:58:25;;;;;;;14.60;10.38;;;17.70;99.90;;;;;;5111529;28;20046;-52
2022/07/01 09:00:52;;;;;;;17.30;11.30;;;17.60;99.90;;;;;;5116813;27;20066;-48
2022/07/01 09:03:22;;;;;;;19.77;12.40;;;17.60;99.90;;;;;;5121888;27;20140;-45
2022/07/01 09:05:52;;;;;;;22.27;12.43;;;17.90;99.90;;;;;;5109051;28;20035;-51
2022/07/01 09:08:18;;;;;;;20.52;12.65;;;18.20;99.90;;;;;;5111292;28;20551;-47
2022/07/01 09:10:45;;;;;;;18.88;13.38;;;18.10;99.90;;;;;;5111177;28;20466;-50
2022/07/01 09:13:13;;;;;;;21.85;12.98;;;18.20;99.90;;;;;;5090310;28;20085;-47
2022/07/01 09:15:40;;;;;;;21.45;13.65;;;18.40;99.90;;;;;;5110297;28;20078;-48
2022/07/01 09:18:18;;;;;;;18.00;12.10;;;18.30;99.90;;;;;;5109986;28;20046;-48
2022/07/01 09:20:47;;;;;;;17.05;11.38;;;18.60;99.90;;;;;;5108494;28;20506;-48
2022/07/01 09:23:18;;;;;;;13.75;9.05;;;18.70;99.90;;;;;;5108392;28;20032;-48
2022/07/01 09:25:47;;;;;;;15.00;11.18;;;18.30;99.90;;;;;;5091478;28;20047;-46
2022/07/01 09:28:26;;;;;;;16.30;11.77;;;18.70;99.90;;;;;;5107232;28;20114;-44
2022/07/01 09:30:54;;;;;;;14.75;11.55;;;18.60;99.90;;;;;;5109726;28;20479;-48
2022/07/01 09:33:22;;;;;;;15.07;9.82;;;18.80;99.90;;;;;;5091123;28;20043;-46
2022/07/01 09:35:51;;;;;;;13.57;9.85;;;19.00;99.90;;;;;;5109803;28;20075;-46
2022/07/01 09:38:19;;;;;;;14.85;10.57;;;19.10;99.90;;;;;;5108156;28;20051;-45
2022/07/01 09:40:52;;;;;;;16.30;9.23;;;19.10;99.90;;;;;;5107287;28;20039;-48
2022/07/01 09:43:30;;;;;;;11.43;7.87;;;19.30;99.90;;;;;;5108576;28;20074;-47
2022/07/01 09:46:10;;;;;;;11.30;6.43;;;19.20;99.90;;;;;;5103854;28;20054;-47
2022/07/01 09:48:35;;;;;;;10.52;5.72;;;19.10;99.90;;;;;;5089024;28;20475;-46
2022/07/01 09:51:05;;;;;;;12.45;5.22;;;19.30;99.90;;;;;;5102314;28;20036;-46
2022/07/01 09:53:32;;;;;;;7.40;4.80;;;19.50;99.90;;;;;;5108983;28;20114;-46
2022/07/01 09:55:58;;;;;;;8.27;4.82;;;19.60;99.90;;;;;;5107252;28;20130;-48
2022/07/01 09:58:24;;;;;;;9.23;5.47;;;19.50;99.90;;;;;;5102678;28;20042;-48
2022/07/01 10:00:52;;;;;;;8.27;4.03;;;19.80;99.90;;;;;;5097325;28;20402;-47
2022/07/01 10:03:18;;;;;;;8.98;4.28;;;19.60;99.90;;;;;;5096161;28;20066;-49
2022/07/01 10:05:48;;;;;;;9.40;3.40;;;19.80;99.90;;;;;;5101725;28;20040;-50
2022/07/01 10:08:29;;;;;;;10.45;3.50;;;20.30;99.90;;;;;;5110295;28;20039;-48
2022/07/01 10:11:16;;;;;;;7.40;3.72;;;20.10;99.90;;;;;;5108031;28;20036;-46
2022/07/01 10:13:43;;;;;;;16.40;4.05;;;20.00;99.90;;;;;;5103484;28;20047;-50
2022/07/01 10:16:10;;;;;;;7.47;2.95;;;20.20;99.90;;;;;;5103785;28;20055;-52
2022/07/01 10:18:35;;;;;;;8.40;2.60;;;20.50;99.90;;;;;;5106460;28;20061;-49
2022/07/01 10:21:03;;;;;;;7.45;2.67;;;20.70;99.90;;;;;;5103876;28;20036;-46
2022/07/01 10:23:38;;;;;;;5.20;2.95;;;20.70;99.90;;;;;;5103758;28;20108;-49
2022/07/01 10:26:07;;;;;;;8.43;2.90;;;20.40;99.90;;;;;;5101425;28;20047;-47
2022/07/01 10:28:46;;;;;;;6.60;1.77;;;20.00;99.90;;;;;;5100462;28;20426;-48
2022/07/01 10:31:17;;;;;;;6.05;1.92;;;19.90;99.90;;;;;;5099426;28;20479;-48
2022/07/01 10:33:53;;;;;;;7.78;2.22;;;19.90;99.90;;;;;;5100888;28;20031;-50
2022/07/01 10:36:22;;;;;;;7.80;1.63;;;20.30;99.90;;;;;;5100840;28;20115;-49
2022/07/01 10:41:53;;;;;;;6.53;1.38;;;20.60;99.90;;;;;;5098924;28;20047;-49
2022/07/01 10:44:20;;;;;;;4.40;1.27;;;20.60;99.90;;;;;;5100591;28;20032;-49
2022/07/01 10:46:57;;;;;;;4.70;1.13;;;20.30;99.90;;;;;;5079114;28;20036;-47
2022/07/01 10:49:35;;;;;;;6.53;1.38;;;19.90;99.90;;;;;;5099679;28;20590;-49
2022/07/01 10:52:10;;;;;;;4.50;1.27;;;19.70;99.90;;;;;;5097255;28;20036;-47
2022/07/01 10:54:36;;;;;;;6.63;1.50;;;19.50;99.90;;;;;;5095255;28;20039;-48
2022/07/01 10:57:31;;;;;;;4.32;1.90;;;19.40;99.90;;;;;;5099485;28;20081;-51
2022/07/01 10:59:59;;;;;;;7.85;1.83;;;19.30;99.90;;;;;;5083649;28;20060;-51
2022/07/01 11:02:33;;;;;;;4.95;1.45;;;19.20;99.90;;;;;;5078702;28;20047;-45
2022/07/01 11:05:10;;;;;;;6.18;1.63;;;19.40;99.90;;;;;;5103070;28;20625;-48
2022/07/01 11:07:38;;;;;;;6.03;1.58;;;19.20;99.90;;;;;;5104059;28;20055;-46
2022/07/01 11:10:07;;;;;;;8.57;1.80;;;19.10;99.90;;;;;;5101046;27;20436;-45
2022/07/01 11:12:33;;;;;;;5.28;1.50;;;19.20;99.90;;;;;;5103218;28;20035;-48
2022/07/01 11:15:01;;;;;;;8.15;1.65;;;19.10;99.90;;;;;;5108100;28;20043;-48
2022/07/01 11:17:28;;;;;;;4.32;1.30;;;19.20;99.90;;;;;;5112663;27;20112;-48
2022/07/01 11:19:58;;;;;;;7.47;1.42;;;19.10;99.90;;;;;;5111881;28;20040;-46
2022/07/01 11:22:30;;;;;;;6.05;1.30;;;19.40;99.90;;;;;;5112455;28;20038;-48
2022/07/01 11:24:58;;;;;;;6.57;1.60;;;19.50;99.90;;;;;;5113624;28;20466;-49
2022/07/01 11:27:27;;;;;;;4.85;1.20;;;19.80;99.90;;;;;;5113351;28;20032;-46
2022/07/01 11:29:58;;;;;;;3.97;1.23;;;20.10;99.90;;;;;;5113588;28;20118;-49
2022/07/01 11:32:34;;;;;;;5.55;1.20;;;20.30;99.90;;;;;;5113409;28;20494;-49
2022/07/01 11:35:01;;;;;;;4.85;1.10;;;20.10;99.90;;;;;;5112960;28;20060;-47
2022/07/01 11:40:17;;;;;;;3.97;1.10;;;20.60;99.90;;;;;;5113044;28;20044;-50
2022/07/01 11:42:44;;;;;;;4.93;1.33;;;20.40;99.90;;;;;;5112303;28;20115;-48
2022/07/01 11:45:25;;;;;;;6.75;1.20;;;20.40;99.90;;;;;;5112800;28;20032;-50
2022/07/01 11:47:51;;;;;;;6.47;1.00;;;20.50;99.90;;;;;;5113274;27;20046;-50
2022/07/01 11:50:17;;;;;;;5.30;1.15;;;20.50;99.90;;;;;;5112769;28;20089;-49
2022/07/01 11:52:42;;;;;;;5.85;1.10;;;21.20;99.90;;;;;;5112852;27;20065;-46
2022/07/01 11:55:08;;;;;;;5.35;1.25;;;20.60;99.90;;;;;;5112676;28;20483;-49
2022/07/01 11:57:34;;;;;;;7.22;1.20;;;20.30;99.90;;;;;;5111725;28;20075;-46
2022/07/01 12:00:10;;;;;;;5.82;1.00;;;20.10;99.90;;;;;;5112757;28;20493;-46
2022/07/01 12:02:36;;;;;;;6.47;1.10;;;19.90;99.90;;;;;;5112367;28;20043;-48
2022/07/01 12:05:02;;;;;;;3.65;0.90;;;19.80;99.90;;;;;;5112034;27;20043;-48
2022/07/01 12:07:29;;;;;;;7.03;0.98;;;19.80;99.90;;;;;;5112785;28;20064;-50
2022/07/01 12:09:54;;;;;;;5.50;1.08;;;20.30;99.90;;;;;;5112629;28;20046;-52
2022/07/01 12:12:24;;;;;;;3.75;0.93;;;20.20;99.90;;;;;;5112126;28;20032;-48
2022/07/01 12:14:55;;;;;;;5.18;1.15;;;20.20;99.90;;;;;;5111917;28;20035;-50
2022/07/01 12:17:22;;;;;;;6.05;1.35;;;19.90;99.90;;;;;;5111976;28;20039;-52
2022/07/01 12:19:50;;;;;;;3.40;0.80;;;20.00;99.90;;;;;;5093900;28;20035;-49
2022/07/01 12:22:18;;;;;;;5.68;1.08;;;19.90;99.90;;;;;;5112523;27;20036;-53
2022/07/01 12:24:45;;;;;;;4.03;0.90;;;19.90;99.90;;;;;;5108563;27;20040;-50
2022/07/01 12:27:11;;;;;;;6.10;0.80;;;19.80;99.90;;;;;;5103271;28;20491;-51
2022/07/01 12:29:46;;;;;;;5.35;0.80;;;19.60;99.90;;;;;;5103536;28;20043;-44
2022/07/01 12:32:22;;;;;;;4.90;0.95;;;19.70;99.90;;;;;;5103832;27;20043;-50
2022/07/01 12:34:52;;;;;;;6.18;0.95;;;19.40;99.90;;;;;;5109117;27;20550;-52
2022/07/01 12:37:29;;;;;;;5.65;0.80;;;19.20;99.90;;;;;;5104863;27;20177;-48
2022/07/01 12:40:02;;;;;;;6.75;0.80;;;19.20;99.90;;;;;;5102247;28;20043;-48
2022/07/01 12:42:39;;;;;;;6.72;1.25;;;19.30;99.90;;;;;;5105921;28;20058;-51
2022/07/01 12:45:15;;;;;;;5.38;0.90;;;19.40;99.90;;;;;;5105479;28;20067;-51
2022/07/01 12:47:48;;;;;;;4.88;1.20;;;19.70;99.90;;;;;;5105626;27;20067;-51
2022/07/01 12:50:13;;;;;;;6.60;1.00;;;19.90;99.90;;;;;;5104682;28;20064;-50
2022/07/01 12:52:41;;;;;;;3.58;0.70;;;20.30;99.90;;;;;;5105996;28;20071;-51
2022/07/01 12:55:18;;;;;;;3.35;0.93;;;20.90;99.90;;;;;;5105707;28;20037;-50